Time;durP1;ratioP1;P1;durP2;ratioP2;P2;SDS_P1;SDS_P2;PMS_P1;PMS_P2;Temp;Humidity;BMP_temperature;BMP_pressure;BME280_temperature;BME280_humidity;BME280_pressure;Samples;Min_cycle;Max_cycle;Signal;HPM_P1;HPM_P2
2023/02/16 00:03:53;;;;;;;59.40;37.20;;;;;;;2.26;86.33;101107.21;186893;1237;57901;-72
2023/02/16 00:07:56;;;;;;;49.90;34.00;;;;;;;2.20;86.11;101105.88;186846;1234;43698;-71
2023/02/16 00:17:04;;;;;;;74.90;43.10;;;;;;;2.07;86.90;101102.95;187197;1234;43638;-70
2023/02/16 00:21:05;;;;;;;57.60;36.70;;;;;;;2.09;87.43;101105.17;187113;1237;43676;-70
2023/02/16 00:25:12;;;;;;;58.30;37.50;;;;;;;2.08;86.34;101111.33;187122;1234;59050;-70
2023/02/16 00:34:42;;;;;;;91.50;65.50;;;;;;;1.92;86.21;101103.80;187244;1233;43577;-70
2023/02/16 00:38:44;;;;;;;91.30;56.10;;;;;;;1.88;86.62;101100.59;187350;1233;43022;-70
2023/02/16 00:42:46;;;;;;;84.70;53.80;;;;;;;1.80;86.88;101102.06;187284;1234;43605;-70
2023/02/16 00:46:47;;;;;;;79.10;47.30;;;;;;;1.77;86.67;101111.96;187044;1237;59074;-70
2023/02/16 00:50:49;;;;;;;75.50;46.10;;;;;;;1.75;86.57;101108.55;186803;1233;43604;-70
2023/02/16 01:00:40;;;;;;;68.30;41.20;;;;;;;1.73;87.17;101114.88;187317;1233;43326;-70
2023/02/16 01:04:42;;;;;;;46.10;30.30;;;;;;;1.68;87.85;101110.85;187060;1233;43675;-72
2023/02/16 01:13:10;;;;;;;81.20;45.30;;;;;;;1.28;90.57;101110.48;187155;1233;43923;-70
2023/02/16 01:18:05;;;;;;;88.90;51.30;;;;;;;1.22;90.01;101102.45;187115;1234;43654;-71
2023/02/16 01:22:06;;;;;;;83.90;51.70;;;;;;;1.07;93.46;101095.71;187313;1234;43530;-70
2023/02/16 01:26:22;;;;;;;102.00;57.40;;;;;;;1.05;92.21;101094.05;187058;1233;43068;-70
2023/02/16 01:30:25;;;;;;;84.50;54.70;;;;;;;1.12;91.47;101092.23;187054;1234;59072;-70
2023/02/16 01:34:51;;;;;;;80.30;53.40;;;;;;;1.15;91.16;101080.80;186904;1233;43066;-70
2023/02/16 01:38:52;;;;;;;81.90;50.40;;;;;;;1.04;91.38;101070.46;187053;1234;43607;-70
2023/02/16 01:47:53;;;;;;;119.20;62.00;;;;;;;0.75;93.34;101065.54;185913;1241;43070;-70
2023/02/16 01:52:22;;;;;;;120.00;73.30;;;;;;;0.60;93.67;101063.70;185927;1242;57876;-71
2023/02/16 01:56:35;;;;;;;115.90;68.80;;;;;;;0.59;94.08;101059.87;185893;1241;43780;-71
2023/02/16 02:01:30;;;;;;;73.40;45.60;;;;;;;0.67;95.25;101058.23;185926;1241;42929;-70
2023/02/16 02:05:34;;;;;;;66.10;40.10;;;;;;;0.83;97.03;101051.16;185903;1242;43659;-70
2023/02/16 02:09:58;;;;;;;66.30;33.90;;;;;;;0.97;97.68;101044.64;185847;1245;42995;-71
2023/02/16 02:14:28;;;;;;;50.60;32.70;;;;;;;1.16;96.81;101047.21;185777;1241;57389;-70
2023/02/16 02:18:30;;;;;;;62.00;34.30;;;;;;;1.35;96.78;101040.55;185724;1241;43663;-70
2023/02/16 02:27:24;;;;;;;48.30;29.80;;;;;;;1.70;95.44;101026.48;187338;1234;43022;-70
2023/02/16 02:32:07;;;;;;;62.50;34.30;;;;;;;1.82;94.46;101023.48;186884;1234;43677;-70
2023/02/16 02:36:43;;;;;;;50.70;32.40;;;;;;;1.95;93.66;101021.31;187280;1233;57930;-70
2023/02/16 02:41:02;;;;;;;47.20;28.80;;;;;;;2.05;93.09;101015.34;187082;1235;43743;-70
2023/02/16 02:45:21;;;;;;;43.30;29.10;;;;;;;2.18;92.87;101012.45;187323;1234;43666;-70
2023/02/16 02:49:22;;;;;;;47.00;29.30;;;;;;;2.31;91.81;101007.80;187184;1233;42955;-70
2023/02/16 03:03:46;;;;;;;48.20;28.10;;;;;;;2.31;90.21;101004.13;186893;1233;43721;-71
2023/02/16 03:07:50;;;;;;;53.10;31.20;;;;;;;2.36;90.19;100999.92;187345;1234;42967;-71
2023/02/16 03:16:38;;;;;;;42.30;26.30;;;;;;;2.36;90.46;100999.57;187267;1234;43620;-70
2023/02/16 03:29:52;;;;;;;45.70;29.50;;;;;;;2.47;89.01;101002.17;186947;1234;43051;-71
2023/02/16 03:40:58;;;;;;;51.70;33.50;;;;;;;2.43;87.94;101007.05;187230;1234;43669;-71
2023/02/16 03:44:59;;;;;;;55.30;32.40;;;;;;;2.32;88.14;101010.56;187151;1234;58258;-71
2023/02/16 03:49:02;;;;;;;50.30;30.20;;;;;;;2.31;88.84;101008.34;187322;1234;42998;-70
2023/02/16 03:53:06;;;;;;;56.00;36.30;;;;;;;2.37;89.30;101007.41;187285;1233;42911;-70
2023/02/16 03:57:09;;;;;;;57.30;34.80;;;;;;;2.45;88.71;101004.16;187284;1237;43060;-70
2023/02/16 04:01:10;;;;;;;47.60;28.40;;;;;;;2.51;88.00;101005.16;186791;1234;43645;-71
2023/02/16 04:06:02;;;;;;;48.10;29.30;;;;;;;2.46;87.39;101005.54;187129;1234;57897;-72
2023/02/16 04:10:05;;;;;;;51.20;34.10;;;;;;;2.11;87.90;101002.40;187106;1233;42972;-71
2023/02/16 04:19:54;;;;;;;78.10;50.20;;;;;;;1.47;91.65;101018.33;187300;1233;43673;-72
2023/02/16 04:29:07;;;;;;;83.10;49.70;;;;;;;1.29;91.21;101020.80;187361;1235;58237;-73
2023/02/16 04:33:33;;;;;;;85.20;55.30;;;;;;;1.19;91.06;101023.55;187410;1234;43628;-72
2023/02/16 04:37:34;;;;;;;95.20;52.90;;;;;;;1.12;91.57;101026.05;186844;1234;43692;-71
2023/02/16 04:41:36;;;;;;;95.50;56.10;;;;;;;1.07;92.24;101028.63;187392;1234;42939;-71
2023/02/16 04:45:37;;;;;;;88.00;56.80;;;;;;;1.07;92.82;101026.71;187122;1234;43666;-72
2023/02/16 04:49:39;;;;;;;109.90;58.60;;;;;;;1.15;92.70;101023.50;187103;1234;58204;-72
2023/02/16 04:53:40;;;;;;;96.50;59.00;;;;;;;1.18;91.39;101021.67;187380;1234;43138;-72
2023/02/16 04:57:42;;;;;;;108.70;58.40;;;;;;;1.12;90.56;101019.04;187462;1234;42994;-72
2023/02/16 05:01:43;;;;;;;92.40;57.00;;;;;;;1.10;91.13;101018.58;187445;1235;43679;-72
2023/02/16 05:05:45;;;;;;;101.90;65.00;;;;;;;1.08;91.02;101018.98;186954;1234;43082;-73
2023/02/16 05:09:46;;;;;;;114.50;63.20;;;;;;;1.01;91.30;101020.60;187400;1235;59132;-73
2023/02/16 05:18:42;;;;;;;123.90;70.30;;;;;;;0.84;91.88;101013.95;187232;1235;43351;-71
2023/02/16 05:22:45;;;;;;;135.20;73.80;;;;;;;0.77;91.88;101023.23;187404;1234;43329;-73
2023/02/16 05:27:42;;;;;;;109.40;63.80;;;;;;;0.82;92.32;101024.81;186859;1234;80193;-72
2023/02/16 05:31:46;;;;;;;96.50;54.00;;;;;;;0.92;92.09;101020.70;186138;1235;59797;-89
2023/02/16 05:35:49;;;;;;;99.70;56.80;;;;;;;0.74;92.20;101013.73;186123;1235;44047;-88
2023/02/16 05:53:08;;;;;;;87.90;49.20;;;;;;;0.31;93.27;101021.19;186796;1235;79926;-74
2023/02/16 05:57:11;;;;;;;84.20;45.80;;;;;;;0.29;93.28;101020.02;187110;1235;43517;-74
2023/02/16 06:01:14;;;;;;;73.50;48.00;;;;;;;0.36;93.39;101021.23;186883;1234;43184;-73
2023/02/16 06:05:17;;;;;;;127.50;74.70;;;;;;;0.46;92.95;101022.54;187142;1234;43290;-75
2023/02/16 06:09:20;;;;;;;125.60;70.80;;;;;;;0.53;92.93;101026.01;186797;1234;42918;-73
2023/02/16 06:13:23;;;;;;;118.70;66.50;;;;;;;0.56;91.84;101023.45;186917;1233;59776;-74
2023/02/16 06:17:27;;;;;;;107.10;65.00;;;;;;;0.57;91.91;101026.59;186878;1234;43549;-74
2023/02/16 06:21:30;;;;;;;99.30;60.60;;;;;;;0.64;92.36;101024.81;187037;1234;42902;-74
2023/02/16 06:25:44;;;;;;;95.30;54.50;;;;;;;0.76;92.78;101026.76;186927;1235;43641;-74
2023/02/16 06:29:50;;;;;;;81.20;50.40;;;;;;;0.89;93.75;101026.70;186958;1233;43064;-74
2023/02/16 06:33:55;;;;;;;83.60;52.60;;;;;;;1.04;92.74;101030.11;187319;1234;57941;-75
2023/02/16 06:38:23;;;;;;;93.50;55.60;;;;;;;1.02;92.41;101032.98;187148;1234;43733;-75
2023/02/16 06:42:25;;;;;;;96.10;48.80;;;;;;;0.90;93.60;101034.21;187338;1233;43434;-74
2023/02/16 06:46:26;;;;;;;88.60;54.10;;;;;;;0.83;95.11;101036.16;187330;1237;43627;-74
2023/02/16 06:50:28;;;;;;;95.30;58.20;;;;;;;0.98;96.03;101039.38;187114;1233;42960;-76
2023/02/16 06:54:30;;;;;;;93.40;58.50;;;;;;;1.20;95.17;101037.85;187377;1235;57898;-74
2023/02/16 06:58:31;;;;;;;102.40;55.20;;;;;;;1.38;94.45;101033.30;187151;1235;43125;-75
2023/02/16 07:03:24;;;;;;;84.60;53.10;;;;;;;1.55;94.38;101033.44;186915;1235;42964;-75
2023/02/16 07:07:26;;;;;;;96.60;50.60;;;;;;;1.81;94.49;101034.89;187390;1233;43072;-74
2023/02/16 07:11:28;;;;;;;89.10;53.80;;;;;;;2.00;93.92;101033.02;187157;1235;42989;-74
2023/02/16 07:15:30;;;;;;;104.00;60.80;;;;;;;2.13;93.68;101033.12;186861;1235;57853;-75
2023/02/16 07:19:32;;;;;;;114.50;59.10;;;;;;;2.28;93.51;101025.26;187098;1234;43308;-73
2023/02/16 07:23:33;;;;;;;103.10;56.70;;;;;;;2.23;93.81;101028.59;187095;1234;42963;-73
2023/02/16 07:27:35;;;;;;;114.00;64.10;;;;;;;2.26;94.51;101027.77;187151;1234;42942;-74
2023/02/16 07:31:37;;;;;;;118.20;62.90;;;;;;;2.38;94.96;101024.55;187090;1234;43368;-76
2023/02/16 07:35:38;;;;;;;85.70;48.10;;;;;;;2.46;95.73;101021.79;187338;1235;57759;-74
2023/02/16 07:39:40;;;;;;;75.70;42.60;;;;;;;2.62;96.28;101020.37;187364;1234;42944;-73
2023/02/16 07:44:10;;;;;;;69.70;38.60;;;;;;;2.85;96.08;101019.70;187056;1235;42954;-75
2023/02/16 07:48:12;;;;;;;55.60;32.60;;;;;;;3.17;96.13;101023.38;187050;1234;44030;-74
2023/02/16 07:52:14;;;;;;;45.80;30.30;;;;;;;3.36;95.31;101017.02;187154;1233;43058;-74
2023/02/16 07:56:46;;;;;;;47.20;28.20;;;;;;;3.59;94.64;101012.23;187325;1235;57890;-74
2023/02/16 08:00:47;;;;;;;48.50;29.80;;;;;;;3.83;93.76;101007.04;187038;1235;43480;-74
2023/02/16 08:04:53;;;;;;;47.30;27.30;;;;;;;4.05;92.83;101004.04;187033;1233;42979;-75
2023/02/16 08:08:55;;;;;;;48.80;28.00;;;;;;;4.23;92.42;100995.02;187375;1233;42926;-74
2023/02/16 08:12:58;;;;;;;47.70;28.60;;;;;;;4.39;91.86;101001.34;187059;1234;42935;-75
2023/02/16 08:17:28;;;;;;;36.50;26.30;;;;;;;4.53;91.51;101001.25;187047;1234;57907;-74
2023/02/16 08:21:31;;;;;;;51.80;31.00;;;;;;;4.76;91.99;101004.25;187366;1233;43667;-75
2023/02/16 08:25:33;;;;;;;42.00;27.80;;;;;;;4.99;91.23;101009.52;186951;1233;42937;-74
2023/02/16 08:29:36;;;;;;;42.50;29.40;;;;;;;5.18;90.61;101010.39;186911;1234;78523;-90
2023/02/16 08:33:44;;;;;;;42.70;28.80;;;;;;;5.39;91.24;101013.80;186324;1234;43978;-90
2023/02/16 08:38:08;;;;;;;48.40;27.30;;;;;;;5.75;92.22;101013.80;186517;1234;57105;-91
2023/02/16 08:42:32;;;;;;;42.20;27.50;;;;;;;6.07;89.53;101012.38;186624;1234;43852;-90
2023/02/16 08:51:13;;;;;;;40.90;27.80;;;;;;;6.51;86.76;101005.23;186636;1235;43701;-90
2023/02/16 08:55:17;;;;;;;48.00;30.90;;;;;;;6.69;87.04;101002.81;186371;1234;43715;-90
2023/02/16 08:59:22;;;;;;;46.10;31.30;;;;;;;6.89;86.56;101001.59;186399;1234;59072;-89
2023/02/16 09:03:31;;;;;;;52.50;32.80;;;;;;;7.03;86.04;101003.33;186279;1234;43793;-90
2023/02/16 09:07:34;;;;;;;52.60;31.20;;;;;;;7.09;85.00;100998.57;186387;1234;44064;-89
2023/02/16 09:11:38;;;;;;;54.00;28.90;;;;;;;7.25;85.10;101002.44;186330;1234;43784;-92
2023/02/16 09:15:42;;;;;;;48.90;29.20;;;;;;;7.44;84.93;100998.88;186279;1234;43703;-91
2023/02/16 09:19:46;;;;;;;62.00;28.50;;;;;;;7.61;83.91;100998.63;186320;1234;59021;-91
2023/02/16 09:23:51;;;;;;;43.70;28.10;;;;;;;7.77;83.08;100995.38;186331;1234;43831;-91
2023/02/16 09:27:54;;;;;;;42.60;27.80;;;;;;;7.95;82.28;100996.16;186311;1234;43902;-91
2023/02/16 09:31:57;;;;;;;36.20;26.80;;;;;;;8.10;81.83;100986.91;186334;1234;44110;-91
2023/02/16 09:36:04;;;;;;;42.30;28.70;;;;;;;8.29;80.32;100990.03;186145;1234;43998;-91
2023/02/16 09:40:14;;;;;;;42.60;28.10;;;;;;;8.44;79.60;100991.77;186511;1234;59538;-91
2023/02/16 09:44:39;;;;;;;43.10;30.00;;;;;;;8.50;79.30;100985.42;186283;1234;43760;-91
2023/02/16 09:48:46;;;;;;;39.40;25.50;;;;;;;8.61;80.34;100993.63;186286;1238;43755;-90
2023/02/16 09:53:02;;;;;;;41.80;25.10;;;;;;;8.78;80.77;100991.16;186332;1234;43729;-91
2023/02/16 09:57:12;;;;;;;32.10;23.30;;;;;;;8.99;79.65;100987.69;186227;1234;43786;-91
2023/02/16 10:01:30;;;;;;;36.50;25.90;;;;;;;9.15;77.75;100992.66;186524;1234;59169;-91
2023/02/16 10:05:44;;;;;;;40.10;25.80;;;;;;;9.24;77.06;101002.06;186350;1234;43772;-89
2023/02/16 10:09:53;;;;;;;42.60;26.30;;;;;;;9.32;76.99;101007.05;186248;1234;43774;-91
2023/02/16 10:14:02;;;;;;;45.00;28.00;;;;;;;9.40;77.80;101007.94;186313;1234;43785;-91
2023/02/16 10:18:24;;;;;;;47.30;28.70;;;;;;;9.44;76.24;101004.80;186376;1234;43667;-91
2023/02/16 10:31:49;;;;;;;44.20;26.70;;;;;;;8.86;76.30;100993.81;186256;1239;43689;-92
2023/02/16 10:36:02;;;;;;;37.00;25.50;;;;;;;8.72;76.27;100995.60;186262;1239;44192;-91
2023/02/16 10:40:25;;;;;;;31.80;23.60;;;;;;;8.53;76.43;100996.60;186303;1235;43703;-91
2023/02/16 10:44:43;;;;;;;37.10;23.10;;;;;;;8.36;76.58;100994.05;186266;1235;59666;-90
2023/02/16 10:48:51;;;;;;;37.90;23.60;;;;;;;8.34;76.42;100990.46;186142;1235;43714;-91
2023/02/16 10:53:21;;;;;;;36.40;23.60;;;;;;;8.37;76.24;100994.33;186258;1236;43880;-90
2023/02/16 11:01:57;;;;;;;40.20;22.40;;;;;;;8.71;76.40;100981.81;186733;1234;43823;-91
2023/02/16 11:24:37;;;;;;;55.20;30.90;;;;;;;8.86;74.96;100961.63;186129;1234;43699;-82
2023/02/16 11:28:44;;;;;;;47.10;25.20;;;;;;;8.94;75.84;100961.64;185998;1235;59446;-85
2023/02/16 11:32:45;;;;;;;48.70;32.20;;;;;;;8.92;74.62;100962.88;186076;1236;44170;-85
2023/02/16 11:36:47;;;;;;;48.60;30.50;;;;;;;9.01;75.23;100965.64;186169;1234;43975;-85
2023/02/16 11:40:51;;;;;;;39.40;27.60;;;;;;;9.16;75.38;100962.90;186023;1233;43920;-85
2023/02/16 11:44:56;;;;;;;50.40;31.00;;;;;;;9.25;73.63;100964.98;185975;1234;43708;-85
2023/02/16 11:49:35;;;;;;;43.10;30.30;;;;;;;9.23;73.24;100969.85;186007;1234;59181;-85
2023/02/16 11:53:41;;;;;;;47.20;30.90;;;;;;;9.24;73.96;100973.23;186239;1233;43852;-85
2023/02/16 11:57:43;;;;;;;43.10;29.60;;;;;;;9.29;73.56;100973.42;185872;1234;43948;-84
2023/02/16 12:01:51;;;;;;;46.60;28.70;;;;;;;9.36;75.06;100970.66;186143;1234;44161;-85
2023/02/16 12:06:06;;;;;;;50.20;30.40;;;;;;;9.42;74.79;100960.86;186125;1233;43642;-85
2023/02/16 12:10:38;;;;;;;43.70;28.60;;;;;;;9.43;72.31;100952.82;185928;1233;59159;-85
2023/02/16 12:15:08;;;;;;;51.60;31.70;;;;;;;9.36;73.98;100959.36;186145;1234;43698;-85
2023/02/16 12:19:59;;;;;;;46.20;29.60;;;;;;;9.30;75.42;100957.94;186284;1234;43651;-85
2023/02/16 12:24:35;;;;;;;50.70;30.70;;;;;;;9.12;74.59;100953.59;184726;1242;43893;-85
2023/02/16 12:28:54;;;;;;;49.30;32.90;;;;;;;9.12;75.74;100942.81;184886;1242;43851;-85
2023/02/16 12:33:06;;;;;;;53.80;31.30;;;;;;;9.16;75.48;100942.36;184877;1242;59400;-85
2023/02/16 12:37:17;;;;;;;42.40;25.80;;;;;;;9.10;75.50;100939.77;184966;1242;44102;-85
2023/02/16 12:41:51;;;;;;;51.30;33.60;;;;;;;9.08;76.28;100938.98;184832;1242;44112;-85
2023/02/16 12:45:55;;;;;;;56.10;32.70;;;;;;;8.98;77.14;100937.33;184775;1242;43764;-85
2023/02/16 12:50:06;;;;;;;44.00;28.40;;;;;;;8.96;78.03;100930.41;184916;1242;43839;-85
2023/02/16 12:54:10;;;;;;;51.00;33.10;;;;;;;9.03;78.58;100922.90;184824;1242;59128;-85
2023/02/16 12:58:13;;;;;;;45.90;30.90;;;;;;;9.18;78.85;100912.00;185208;1235;43892;-85
2023/02/16 13:12:17;;;;;;;52.30;32.00;;;;;;;9.59;77.82;100886.23;186560;1235;44160;-90
2023/02/16 13:16:41;;;;;;;49.70;33.30;;;;;;;9.79;76.44;100877.48;186956;1235;59548;-90
2023/02/16 13:20:53;;;;;;;47.10;31.80;;;;;;;9.94;75.19;100874.11;186536;1234;44459;-90
2023/02/16 13:25:02;;;;;;;49.50;29.90;;;;;;;10.02;76.45;100869.15;186417;1235;45317;-91
2023/02/16 13:29:38;;;;;;;53.10;33.20;;;;;;;10.03;75.10;100872.30;186549;1234;43879;-90
2023/02/16 13:34:07;;;;;;;44.80;28.80;;;;;;;10.05;76.54;100871.27;186947;1234;43689;-91
2023/02/16 13:52:30;;;;;;;49.20;30.30;;;;;;;10.73;75.00;100842.48;186745;1233;44057;-91
2023/02/16 13:56:56;;;;;;;45.10;31.40;;;;;;;10.90;74.99;100837.72;186686;1234;43733;-86
2023/02/16 14:01:27;;;;;;;45.00;28.70;;;;;;;11.08;74.45;100833.73;186440;1234;59745;-87
2023/02/16 14:05:38;;;;;;;45.60;29.10;;;;;;;11.29;74.43;100830.35;186535;1234;44266;-88
2023/02/16 14:09:40;;;;;;;39.80;28.70;;;;;;;11.49;73.98;100826.35;186397;1236;43846;-88
2023/02/16 14:13:46;;;;;;;46.00;29.70;;;;;;;11.64;73.36;100827.34;186465;1234;43599;-88
2023/02/16 14:17:49;;;;;;;45.90;29.00;;;;;;;11.73;73.34;100821.34;186519;1234;43648;-88
2023/02/16 14:21:51;;;;;;;45.60;32.70;;;;;;;11.78;73.14;100817.77;186186;1234;57945;-88
2023/02/16 14:26:01;;;;;;;44.20;30.80;;;;;;;11.77;72.89;100814.80;186377;1233;43963;-88
2023/02/16 14:30:16;;;;;;;52.20;31.40;;;;;;;11.76;73.27;100812.56;186360;1234;44169;-87
2023/02/16 14:34:27;;;;;;;40.60;28.80;;;;;;;11.71;73.59;100815.64;186309;1233;43958;-87
2023/02/16 14:38:32;;;;;;;45.90;31.10;;;;;;;11.66;74.09;100817.63;186336;1234;44044;-88
2023/02/16 14:42:35;;;;;;;40.80;25.10;;;;;;;11.61;72.93;100814.31;186378;1233;57884;-87
2023/02/16 14:46:53;;;;;;;42.10;31.10;;;;;;;11.47;72.28;100812.17;186368;1233;44027;-88
2023/02/16 14:51:19;;;;;;;192.90;116.30;;;;;;;11.41;72.24;100823.85;186516;1234;43807;-88
2023/02/16 14:55:55;;;;;;;105.10;59.10;;;;;;;11.39;71.68;100828.59;186403;1234;44191;-88
2023/02/16 15:00:03;;;;;;;83.10;50.50;;;;;;;11.30;72.27;100832.98;186478;1233;43975;-90
2023/02/16 15:04:08;;;;;;;61.20;36.40;;;;;;;11.19;71.98;100835.60;186357;1234;60355;-89
2023/02/16 15:08:17;;;;;;;53.40;36.20;;;;;;;11.01;73.33;100826.79;186393;1233;44035;-89
2023/02/16 15:12:22;;;;;;;62.20;35.00;;;;;;;10.86;73.13;100822.02;186406;1234;43906;-90
2023/02/16 15:16:25;;;;;;;44.00;28.10;;;;;;;10.70;74.77;100827.13;186435;1234;43937;-90
2023/02/16 15:20:37;;;;;;;38.40;28.30;;;;;;;10.58;74.69;100826.41;186402;1234;43948;-90
2023/02/16 15:24:40;;;;;;;39.10;26.50;;;;;;;10.33;75.00;100824.79;186184;1234;58018;-89
2023/02/16 15:28:54;;;;;;;41.30;28.00;;;;;;;10.05;76.04;100830.84;186272;1237;43754;-90
2023/02/16 15:33:00;;;;;;;57.40;35.40;;;;;;;10.00;77.71;100834.04;186350;1234;44172;-90
2023/02/16 15:37:24;;;;;;;55.00;31.00;;;;;;;9.78;79.32;100835.35;186520;1234;43976;-90
2023/02/16 15:41:31;;;;;;;47.10;30.60;;;;;;;9.51;79.84;100831.04;186269;1235;379007;-91
2023/02/16 15:45:36;;;;;;;48.40;31.20;;;;;;;9.22;80.43;100824.33;186328;1235;59120;-90
2023/02/16 15:49:41;;;;;;;46.60;28.90;;;;;;;8.89;81.83;100826.15;186355;1234;44080;-90
2023/02/16 15:53:48;;;;;;;50.40;31.90;;;;;;;8.62;82.62;100827.33;186367;1233;44150;-90
2023/02/16 15:57:52;;;;;;;46.90;30.00;;;;;;;8.52;81.27;100824.50;186329;1235;43975;-91
2023/02/16 16:02:02;;;;;;;39.70;26.50;;;;;;;8.47;81.03;100825.97;186346;1233;43686;-90
2023/02/16 16:06:05;;;;;;;45.20;33.30;;;;;;;8.32;82.51;100826.58;186568;1234;59213;-90
2023/02/16 16:10:27;;;;;;;54.20;31.10;;;;;;;8.04;84.57;100820.91;186406;1234;44022;-90
2023/02/16 16:14:32;;;;;;;41.20;27.30;;;;;;;7.81;83.95;100821.23;186639;1233;44018;-91
2023/02/16 16:18:42;;;;;;;41.90;27.60;;;;;;;7.47;83.96;100819.77;186398;1233;43818;-91
2023/02/16 16:22:44;;;;;;;42.60;30.90;;;;;;;6.89;87.09;100820.70;186588;1234;43944;-90
2023/02/16 16:26:58;;;;;;;50.70;29.60;;;;;;;6.53;90.07;100826.07;186325;1234;59375;-90
2023/02/16 16:31:14;;;;;;;44.90;25.70;;;;;;;6.42;90.17;100824.56;186383;1233;43793;-90
2023/02/16 16:35:21;;;;;;;51.70;31.50;;;;;;;6.29;89.89;100825.42;186473;1235;43796;-90
2023/02/16 16:39:28;;;;;;;50.70;32.20;;;;;;;6.35;88.58;100827.25;186373;1234;44042;-90
2023/02/16 16:43:36;;;;;;;48.80;30.40;;;;;;;6.46;86.38;100828.95;186334;1235;44050;-90
2023/02/16 16:47:39;;;;;;;48.60;34.90;;;;;;;6.48;84.37;100828.83;186408;1233;57137;-90
2023/02/16 16:51:42;;;;;;;53.10;32.40;;;;;;;6.50;84.27;100830.33;186511;1233;43969;-91
2023/02/16 16:55:44;;;;;;;64.30;36.50;;;;;;;6.49;84.25;100830.70;186337;1235;44032;-88
2023/02/16 16:59:46;;;;;;;47.20;31.10;;;;;;;6.49;84.27;100826.85;186570;1235;43687;-90
2023/02/16 17:04:00;;;;;;;56.20;36.00;;;;;;;6.50;84.15;100830.85;186669;1234;80903;-75
2023/02/16 17:27:02;;;;;;;192.20;108.90;;;;;;;6.45;83.77;100826.14;186550;1235;44032;-90
2023/02/16 17:31:08;;;;;;;167.30;91.90;;;;;;;6.17;84.33;100829.44;186167;1235;60394;-90
2023/02/16 17:49:23;;;;;;;159.60;97.50;;;;;;;5.40;87.93;100835.02;186350;1234;44036;-84
2023/02/16 17:53:26;;;;;;;137.50;87.40;;;;;;;5.34;88.08;100832.56;186088;1234;59613;-87
2023/02/16 17:57:29;;;;;;;142.50;93.90;;;;;;;5.28;88.23;100835.45;186102;1234;43717;-86
2023/02/16 18:01:33;;;;;;;120.20;75.90;;;;;;;5.32;88.31;100833.71;186134;1234;43681;-85
2023/02/16 18:05:36;;;;;;;100.80;63.50;;;;;;;5.39;87.91;100829.78;186066;1235;43960;-86
2023/02/16 18:09:37;;;;;;;79.70;50.60;;;;;;;5.51;87.60;100826.56;185979;1234;43974;-86
2023/02/16 18:13:40;;;;;;;63.50;39.60;;;;;;;5.61;86.93;100827.27;186142;1234;60001;-88
2023/02/16 18:17:42;;;;;;;56.10;34.20;;;;;;;5.70;85.57;100828.58;186224;1234;43798;-87
2023/02/16 18:21:45;;;;;;;66.30;36.40;;;;;;;5.69;83.99;100830.37;186259;1235;43669;-88
2023/02/16 18:25:47;;;;;;;66.50;36.30;;;;;;;5.67;83.59;100827.15;186257;1233;43704;-87
2023/02/16 18:29:50;;;;;;;55.30;34.50;;;;;;;5.53;83.79;100828.23;186102;1234;44006;-86
2023/02/16 18:33:52;;;;;;;66.00;40.00;;;;;;;5.32;84.51;100826.13;185982;1234;59308;-86
2023/02/16 18:37:54;;;;;;;71.80;38.50;;;;;;;5.20;84.62;100829.52;186274;1233;44275;-85
2023/02/16 18:41:56;;;;;;;62.60;40.50;;;;;;;5.17;84.17;100831.79;186217;1234;43736;-85
2023/02/16 18:45:58;;;;;;;59.90;41.30;;;;;;;5.09;84.29;100827.27;185946;1233;44133;-84
2023/02/16 18:50:00;;;;;;;121.60;67.20;;;;;;;5.00;85.24;100824.72;186148;1234;43722;-85
2023/02/16 18:54:02;;;;;;;162.30;82.80;;;;;;;4.97;85.45;100822.77;186090;1235;60265;-86
2023/02/16 18:58:09;;;;;;;219.50;112.90;;;;;;;5.01;85.71;100825.92;186014;1234;43810;-87
2023/02/16 19:02:12;;;;;;;262.20;127.70;;;;;;;5.04;85.79;100819.24;186079;1235;43710;-87
2023/02/16 19:06:15;;;;;;;204.20;114.50;;;;;;;5.09;85.72;100817.77;186214;1234;43711;-88
2023/02/16 19:10:18;;;;;;;186.00;99.60;;;;;;;5.08;86.07;100817.63;186186;1235;43831;-87
2023/02/16 19:14:19;;;;;;;170.30;89.40;;;;;;;5.08;86.04;100820.96;185982;1234;59609;-87
2023/02/16 19:18:22;;;;;;;162.20;81.60;;;;;;;5.11;86.06;100823.81;186145;1234;43843;-87
2023/02/16 19:22:25;;;;;;;137.50;77.80;;;;;;;5.17;85.83;100823.52;186177;1234;43833;-87
2023/02/16 19:26:29;;;;;;;126.50;73.30;;;;;;;5.21;85.49;100825.10;186120;1234;44097;-87
2023/02/16 19:30:32;;;;;;;108.30;66.30;;;;;;;5.19;85.39;100821.67;185988;1234;43786;-88
2023/02/16 19:34:35;;;;;;;107.80;66.00;;;;;;;5.06;85.85;100827.40;186140;1235;59399;-87
2023/02/16 19:38:37;;;;;;;126.80;69.10;;;;;;;4.98;86.22;100829.03;186123;1234;44838;-87
2023/02/16 19:42:39;;;;;;;118.60;69.00;;;;;;;4.87;86.89;100823.92;186170;1237;44084;-86
2023/02/16 19:46:41;;;;;;;124.90;67.70;;;;;;;4.77;87.58;100817.77;185942;1235;43615;-86
2023/02/16 19:50:45;;;;;;;96.60;62.60;;;;;;;4.77;87.96;100820.40;185988;1234;43727;-86
2023/02/16 19:54:48;;;;;;;84.90;52.20;;;;;;;4.90;88.36;100823.10;186151;1234;58486;-87
2023/02/16 19:58:50;;;;;;;76.70;46.90;;;;;;;5.08;88.24;100813.77;186160;1234;43790;-87
2023/02/16 20:02:53;;;;;;;290.50;131.00;;;;;;;5.18;86.91;100813.46;186481;1234;43746;-89
2023/02/16 20:06:55;;;;;;;149.20;70.10;;;;;;;5.28;87.29;100813.12;186379;1234;43970;-90
2023/02/16 20:10:57;;;;;;;96.20;53.90;;;;;;;5.43;87.42;100811.48;186089;1234;43724;-89
2023/02/16 20:14:59;;;;;;;72.30;42.10;;;;;;;5.55;87.25;100809.64;186409;1233;59263;-89
2023/02/16 20:19:02;;;;;;;72.00;44.10;;;;;;;5.63;86.67;100806.92;186084;1235;43779;-89
2023/02/16 20:23:06;;;;;;;61.10;40.60;;;;;;;5.73;86.39;100813.27;186136;1234;43713;-89
2023/02/16 20:27:08;;;;;;;91.70;49.50;;;;;;;5.81;85.33;100811.27;186381;1233;43775;-90
2023/02/16 20:31:19;;;;;;;134.90;83.90;;;;;;;5.85;84.61;100809.45;186279;1237;43853;-89
2023/02/16 20:35:21;;;;;;;;;;;;;;;5.92;84.37;100804.89;186407;1234;59620;-86
2023/02/16 20:39:28;;;;;;;117.20;67.00;;;;;;;5.98;83.56;100803.34;186383;1235;44111;-84
2023/02/16 20:43:31;;;;;;;119.30;65.80;;;;;;;5.98;83.44;100809.16;186316;1234;43795;-85
2023/02/16 20:47:33;;;;;;;78.60;47.30;;;;;;;5.98;83.21;100811.58;186264;1237;44038;-84
2023/02/16 20:51:36;;;;;;;86.90;53.50;;;;;;;6.02;83.34;100815.64;186134;1234;44062;-83
2023/02/16 20:55:38;;;;;;;476.10;259.90;;;;;;;6.06;83.40;100814.73;186200;1234;57352;-84
2023/02/16 20:59:40;;;;;;;656.60;401.00;;;;;;;6.14;82.82;100814.80;186321;1234;43911;-84
2023/02/16 21:03:42;;;;;;;264.70;144.30;;;;;;;6.19;81.95;100814.77;186398;1234;43948;-84
2023/02/16 21:07:44;;;;;;;202.30;115.60;;;;;;;6.17;81.69;100816.44;186151;1234;44027;-85
2023/02/16 21:11:46;;;;;;;172.40;90.30;;;;;;;6.13;81.54;100812.91;186350;1234;43670;-85
2023/02/16 21:15:50;;;;;;;242.90;121.20;;;;;;;6.13;81.32;100810.27;186395;1234;59531;-85
2023/02/16 21:19:52;;;;;;;144.10;80.70;;;;;;;6.11;81.35;100811.64;186571;1234;43714;-85
2023/02/16 21:23:54;;;;;;;99.60;55.80;;;;;;;6.12;81.65;100812.45;186489;1234;43949;-85
2023/02/16 21:27:57;;;;;;;180.90;99.30;;;;;;;6.15;81.57;100809.67;186341;1235;44087;-85
2023/02/16 21:31:58;;;;;;;158.10;87.30;;;;;;;6.06;81.11;100809.23;186567;1235;44006;-85
2023/02/16 21:36:05;;;;;;;234.20;128.70;;;;;;;5.98;81.59;100811.61;186423;1233;58809;-86
2023/02/16 21:44:31;;;;;;;289.00;151.60;;;;;;;5.81;81.94;100803.69;186470;1234;43655;-85
2023/02/16 21:53:08;;;;;;;46.50;29.10;;;;;;;5.56;82.27;100803.40;185996;1233;43653;-84
2023/02/16 21:57:11;;;;;;;32.90;20.20;;;;;;;5.55;82.38;100806.45;186421;1235;59241;-85
2023/02/16 22:01:17;;;;;;;35.50;20.30;;;;;;;5.45;82.78;100806.81;186378;1234;43912;-86